Time;durP1;ratioP1;P1;durP2;ratioP2;P2;SDS_P1;SDS_P2;PMS_P1;PMS_P2;Temp;Humidity;BMP_temperature;BMP_pressure;BME280_temperature;BME280_humidity;BME280_pressure;Samples;Min_cycle;Max_cycle;Signal;HPM_P1;HPM_P2
2021/03/19 00:01:04;;;;;;;8.77;7.87;;;;;;;3.81;76.49;95526.69;5032835;28;20709;-83
2021/03/19 00:03:30;;;;;;;8.80;7.93;;;;;;;3.78;76.50;95522.66;5030478;28;20252;-85
2021/03/19 00:05:56;;;;;;;8.87;7.97;;;;;;;3.73;76.64;95524.81;5013541;28;20226;-85
2021/03/19 00:08:23;;;;;;;9.00;8.07;;;;;;;3.74;76.15;95517.97;5013977;28;20195;-85
2021/03/19 00:10:49;;;;;;;9.57;8.57;;;;;;;3.74;76.49;95520.53;5032426;28;20226;-85
2021/03/19 00:13:16;;;;;;;9.50;8.33;;;;;;;3.80;75.96;95525.09;5016848;28;20234;-85
2021/03/19 00:15:42;;;;;;;8.70;7.80;;;;;;;3.83;76.42;95518.91;5029633;28;20218;-84
2021/03/19 00:18:08;;;;;;;9.93;8.03;;;;;;;3.79;75.96;95520.94;5033077;28;20226;-83
2021/03/19 00:20:36;;;;;;;10.53;8.87;;;;;;;3.83;76.01;95518.91;5036813;28;20205;-83
2021/03/19 00:23:03;;;;;;;9.60;8.40;;;;;;;3.83;75.70;95514.63;5016115;28;20252;-85
2021/03/19 00:25:29;;;;;;;9.77;8.77;;;;;;;3.73;75.68;95511.28;5034958;28;20233;-83
2021/03/19 00:27:55;;;;;;;9.13;8.23;;;;;;;3.71;75.62;95516.50;5036562;28;20221;-84
2021/03/19 00:30:23;;;;;;;9.50;8.50;;;;;;;3.69;75.95;95508.19;5018786;28;20234;-84
2021/03/19 00:32:50;;;;;;;9.60;8.67;;;;;;;3.72;75.90;95507.94;5016567;28;20223;-85
2021/03/19 00:35:16;;;;;;;9.97;8.83;;;;;;;3.73;75.96;95504.44;5031126;28;20210;-85
2021/03/19 00:37:42;;;;;;;10.23;8.47;;;;;;;3.77;75.87;95507.53;5016132;28;20226;-85
2021/03/19 00:40:10;;;;;;;10.67;8.50;;;;;;;3.75;75.96;95510.22;5030863;28;20283;-84
2021/03/19 00:42:37;;;;;;;8.77;7.87;;;;;;;3.74;75.98;95506.06;5035958;28;20882;-85
2021/03/19 00:45:05;;;;;;;11.63;9.57;;;;;;;3.73;75.71;95498.56;5020768;28;20203;-83
2021/03/19 00:47:32;;;;;;;10.17;9.07;;;;;;;3.72;75.33;95505.38;5016655;28;20565;-83
2021/03/19 00:49:59;;;;;;;10.20;9.07;;;;;;;3.69;75.16;95497.22;5028986;28;20214;-83
2021/03/19 00:52:25;;;;;;;11.27;9.00;;;;;;;3.65;75.68;95496.69;5033348;28;20421;-85
2021/03/19 00:54:51;;;;;;;9.70;8.70;;;;;;;3.60;76.18;95498.84;5024535;28;20229;-85
2021/03/19 00:57:17;;;;;;;11.50;9.13;;;;;;;3.66;76.04;95490.66;5034198;28;20229;-85
2021/03/19 00:59:43;;;;;;;10.10;8.83;;;;;;;3.71;75.98;95500.44;5016031;28;20670;-85
2021/03/19 01:02:09;;;;;;;9.87;8.87;;;;;;;3.70;75.53;95498.81;5018923;28;20332;-83
2021/03/19 01:04:36;;;;;;;10.30;9.07;;;;;;;3.69;75.96;95500.56;5026690;28;20288;-84
2021/03/19 01:07:02;;;;;;;11.87;8.97;;;;;;;3.71;75.91;95485.16;5030903;28;20219;-84
2021/03/19 01:09:28;;;;;;;12.07;9.07;;;;;;;3.69;75.92;95489.56;5015353;28;20227;-85
2021/03/19 01:11:54;;;;;;;11.13;9.60;;;;;;;3.69;75.92;95487.03;5017770;28;20226;-85
2021/03/19 01:14:20;;;;;;;10.60;9.50;;;;;;;3.66;76.20;95484.75;5027714;28;20199;-81
2021/03/19 01:16:46;;;;;;;11.53;9.60;;;;;;;3.61;76.33;95484.38;5032480;28;20603;-81
2021/03/19 01:19:12;;;;;;;11.63;9.17;;;;;;;3.65;75.89;95480.63;5035353;28;20246;-81
2021/03/19 01:21:40;;;;;;;11.17;9.30;;;;;;;3.67;75.74;95484.63;5020164;28;20780;-82
2021/03/19 01:24:07;;;;;;;10.13;9.10;;;;;;;3.69;75.96;95471.75;5020697;28;20244;-84
2021/03/19 01:26:33;;;;;;;10.70;9.17;;;;;;;3.60;76.13;95478.47;5035955;28;20202;-82
2021/03/19 01:28:59;;;;;;;11.50;9.83;;;;;;;3.60;76.22;95467.50;5030305;28;20223;-82
2021/03/19 01:31:25;;;;;;;11.57;9.80;;;;;;;3.62;75.80;95460.53;5025769;28;20271;-82
2021/03/19 01:33:51;;;;;;;12.80;9.93;;;;;;;3.58;76.09;95465.09;5031301;28;20230;-81
2021/03/19 01:36:17;;;;;;;10.57;9.47;;;;;;;3.59;75.90;95461.59;5015218;28;20222;-84
2021/03/19 01:38:44;;;;;;;12.07;10.27;;;;;;;3.56;76.25;95459.31;5017438;28;20222;-83
2021/03/19 01:41:11;;;;;;;11.90;9.50;;;;;;;3.59;75.60;95463.34;5034948;28;20244;-83
2021/03/19 01:43:38;;;;;;;11.40;9.77;;;;;;;3.55;75.50;95462.00;5033503;28;20259;-83
2021/03/19 01:46:41;;;;;;;12.47;9.60;;;;;;;3.55;75.44;95457.72;5024991;28;20268;-84
2021/03/19 01:49:44;;;;;;;11.27;9.40;;;;;;;3.61;75.62;95459.72;5028864;28;20272;-83
2021/03/19 01:52:48;;;;;;;12.33;9.47;;;;;;;3.60;75.18;95455.56;5014512;28;20887;-84
2021/03/19 01:55:51;;;;;;;10.47;9.37;;;;;;;3.50;75.35;95448.88;5028558;28;20244;-84
2021/03/19 01:58:55;;;;;;;12.17;9.83;;;;;;;3.53;75.38;95453.69;5026373;28;20234;-84
2021/03/19 02:01:58;;;;;;;12.97;9.47;;;;;;;3.55;75.59;95445.00;5015108;28;20234;-84
2021/03/19 02:05:02;;;;;;;12.73;9.93;;;;;;;3.56;75.33;95444.06;5023399;28;20223;-85
2021/03/19 02:08:05;;;;;;;11.97;9.53;;;;;;;3.54;75.17;95437.50;5015563;28;20237;-84
2021/03/19 02:11:09;;;;;;;11.67;9.83;;;;;;;3.50;75.32;95442.03;5032211;28;20226;-84
2021/03/19 02:14:12;;;;;;;11.67;9.93;;;;;;;3.54;75.28;95437.50;5033126;28;20233;-80
2021/03/19 02:17:16;;;;;;;13.20;10.27;;;;;;;3.54;75.67;95445.94;5034145;28;20238;-84
2021/03/19 02:20:19;;;;;;;11.73;10.10;;;;;;;3.55;74.97;95442.44;5031842;28;20825;-84
2021/03/19 02:23:23;;;;;;;12.33;9.80;;;;;;;3.51;75.07;95441.09;5033450;28;20237;-84
2021/03/19 02:26:26;;;;;;;12.83;10.50;;;;;;;3.52;75.09;95445.25;5034048;28;20252;-85
2021/03/19 02:29:30;;;;;;;13.37;9.53;;;;;;;3.48;74.87;95441.38;5033863;28;20230;-83
2021/03/19 02:32:03;;;;;;;11.50;9.90;;;;;;;3.50;74.74;95446.34;5033847;28;20229;-82
2021/03/19 02:34:33;;;;;;;13.43;10.87;;;;;;;3.56;74.31;95446.59;5021104;28;20226;-84
2021/03/19 02:36:59;;;;;;;13.03;10.77;;;;;;;3.55;74.02;95441.63;5020522;28;20230;-83
2021/03/19 02:39:25;;;;;;;12.00;9.80;;;;;;;3.56;73.86;95440.69;5013904;28;20226;-84
2021/03/19 02:41:52;;;;;;;13.27;10.47;;;;;;;3.56;73.61;95441.50;5024404;28;20198;-83
2021/03/19 02:44:18;;;;;;;11.30;9.90;;;;;;;3.56;74.28;95435.63;5031978;28;20206;-84
2021/03/19 02:46:45;;;;;;;11.60;9.83;;;;;;;3.56;73.64;95438.97;5033650;28;20732;-85
2021/03/19 02:49:11;;;;;;;11.20;10.00;;;;;;;3.60;74.06;95442.03;5031312;28;20226;-85
2021/03/19 02:51:38;;;;;;;12.53;10.20;;;;;;;3.61;73.72;95438.56;5027958;28;20218;-84
2021/03/19 02:54:04;;;;;;;12.50;10.07;;;;;;;3.63;73.65;95442.56;5032227;28;20210;-85
2021/03/19 02:56:30;;;;;;;12.37;10.00;;;;;;;3.67;73.50;95440.53;5016431;28;20218;-83
2021/03/19 02:58:56;;;;;;;13.63;10.40;;;;;;;3.64;73.76;95443.38;5017476;28;20238;-84
2021/03/19 03:01:22;;;;;;;13.30;9.63;;;;;;;3.67;72.84;95441.34;5034883;28;20276;-85
2021/03/19 03:03:48;;;;;;;11.80;10.10;;;;;;;3.66;73.01;95441.47;5034081;28;20592;-83
2021/03/19 03:06:15;;;;;;;11.77;9.37;;;;;;;3.62;72.79;95437.63;5034042;28;20318;-83
2021/03/19 03:08:41;;;;;;;12.80;10.77;;;;;;;3.56;72.79;95436.41;5032219;28;20206;-84
2021/03/19 03:11:08;;;;;;;11.80;9.83;;;;;;;3.59;72.54;95438.69;5013508;28;20230;-84
2021/03/19 03:13:34;;;;;;;11.20;9.70;;;;;;;3.60;72.36;95434.41;5014235;28;20230;-84
2021/03/19 03:16:01;;;;;;;11.67;10.03;;;;;;;3.58;72.80;95441.38;5033139;28;20230;-85
2021/03/19 03:18:27;;;;;;;11.80;9.40;;;;;;;3.58;72.95;95436.28;5032921;28;20226;-84
2021/03/19 03:20:55;;;;;;;12.40;9.83;;;;;;;3.59;72.25;95435.34;5032946;28;20206;-84
2021/03/19 03:23:24;;;;;;;13.87;9.70;;;;;;;3.57;72.51;95429.59;5033629;28;20246;-83
2021/03/19 03:25:50;;;;;;;10.63;9.23;;;;;;;3.58;72.89;95443.91;5013913;28;20227;-83
2021/03/19 03:28:17;;;;;;;12.67;10.40;;;;;;;3.59;72.41;95442.97;5014077;28;20234;-84
2021/03/19 03:30:46;;;;;;;13.17;10.13;;;;;;;3.59;71.99;95438.69;5031046;28;20222;-84
2021/03/19 03:33:12;;;;;;;11.97;9.70;;;;;;;3.57;71.70;95429.59;5032924;28;20292;-85
2021/03/19 03:35:40;;;;;;;12.07;9.73;;;;;;;3.53;71.73;95431.59;5016168;28;20198;-85
2021/03/19 03:38:10;;;;;;;12.23;8.63;;;;;;;3.55;71.92;95429.72;5012634;28;20242;-85
2021/03/19 03:40:43;;;;;;;13.50;9.97;;;;;;;3.56;71.68;95420.34;5028717;28;20230;-85
2021/03/19 03:43:11;;;;;;;11.00;9.23;;;;;;;3.50;71.79;95431.06;5013434;28;20230;-85
2021/03/19 03:45:37;;;;;;;11.57;9.67;;;;;;;3.45;71.95;95428.94;5029566;28;20368;-85
2021/03/19 03:48:04;;;;;;;11.43;9.73;;;;;;;3.47;72.08;95420.22;5032751;28;20241;-85
2021/03/19 03:50:31;;;;;;;12.37;9.57;;;;;;;3.50;71.89;95421.69;5017363;28;20920;-85
2021/03/19 03:52:57;;;;;;;12.63;9.93;;;;;;;3.46;71.63;95423.69;5015684;28;20237;-84
2021/03/19 03:55:23;;;;;;;13.07;10.30;;;;;;;3.50;71.62;95423.44;5018413;28;20246;-84
2021/03/19 03:57:50;;;;;;;11.87;9.87;;;;;;;3.48;71.79;95426.91;5020152;28;20707;-84
2021/03/19 04:00:21;;;;;;;12.30;9.60;;;;;;;3.52;71.39;95422.34;5036728;28;20329;-85
2021/03/19 04:02:47;;;;;;;10.67;8.83;;;;;;;3.41;71.02;95427.59;5036185;28;20226;-85
2021/03/19 04:05:20;;;;;;;11.50;9.37;;;;;;;3.46;71.26;95426.25;5023903;28;20219;-85
2021/03/19 04:07:46;;;;;;;11.50;9.70;;;;;;;3.51;71.46;95423.28;5029600;28;20222;-85
2021/03/19 04:10:13;;;;;;;11.07;9.33;;;;;;;3.44;72.21;95427.34;5036479;28;20878;-85
2021/03/19 04:12:39;;;;;;;11.27;9.00;;;;;;;3.46;71.30;95428.00;5024511;28;20238;-85
2021/03/19 04:15:07;;;;;;;11.97;9.67;;;;;;;3.46;70.86;95422.91;5028203;28;20199;-84
2021/03/19 04:17:34;;;;;;;10.60;8.93;;;;;;;3.46;71.35;95417.84;5032328;28;20229;-84
2021/03/19 04:20:01;;;;;;;11.73;9.80;;;;;;;3.48;71.21;95419.28;5019967;28;20227;-85
2021/03/19 04:22:27;;;;;;;12.00;9.60;;;;;;;3.46;71.07;95418.59;5025365;28;20236;-85
2021/03/19 04:24:55;;;;;;;11.10;9.20;;;;;;;3.45;70.76;95417.03;5025932;28;20229;-85
2021/03/19 04:27:23;;;;;;;11.27;9.53;;;;;;;3.45;70.93;95434.03;5025291;28;20230;-85
2021/03/19 04:29:51;;;;;;;10.73;9.13;;;;;;;3.44;70.55;95425.59;5036001;28;20264;-85
2021/03/19 04:32:17;;;;;;;10.93;9.50;;;;;;;3.43;70.42;95426.53;5024542;28;20225;-84
2021/03/19 04:34:43;;;;;;;11.73;8.93;;;;;;;3.35;70.81;95428.94;5025060;28;20641;-84
2021/03/19 04:37:11;;;;;;;10.33;8.70;;;;;;;3.34;70.97;95429.88;5036085;28;20234;-85
2021/03/19 04:39:40;;;;;;;11.87;9.33;;;;;;;3.38;70.63;95430.41;5028749;28;20288;-85
2021/03/19 04:42:07;;;;;;;11.70;8.97;;;;;;;3.38;70.70;95430.41;5015905;28;20230;-83
2021/03/19 04:44:37;;;;;;;12.00;9.07;;;;;;;3.42;70.81;95431.75;5022746;28;20251;-85
2021/03/19 04:47:05;;;;;;;11.47;8.67;;;;;;;3.42;71.17;95429.22;5035128;28;20234;-85
2021/03/19 04:49:32;;;;;;;9.70;8.63;;;;;;;3.44;71.24;95437.53;5031782;28;20227;-83
2021/03/19 04:51:58;;;;;;;11.20;9.50;;;;;;;3.48;70.71;95441.38;5022701;28;20755;-85
2021/03/19 04:54:27;;;;;;;11.70;9.50;;;;;;;3.46;71.00;95435.66;5032997;28;20230;-83
2021/03/19 04:56:53;;;;;;;10.53;8.57;;;;;;;3.45;71.02;95441.66;5034405;28;20241;-84
2021/03/19 04:59:19;;;;;;;10.60;9.23;;;;;;;3.41;70.79;95442.88;5035324;28;20918;-84
2021/03/19 05:01:50;;;;;;;12.03;9.30;;;;;;;3.42;71.03;95439.41;5017735;28;20238;-84
2021/03/19 05:04:17;;;;;;;11.80;8.77;;;;;;;3.39;70.62;95434.56;5034538;28;20305;-84
2021/03/19 05:06:44;;;;;;;10.47;8.40;;;;;;;3.40;70.89;95436.19;5023144;28;20708;-83
2021/03/19 05:09:10;;;;;;;13.80;9.33;;;;;;;3.43;70.53;95435.91;5017410;28;20195;-83
2021/03/19 05:11:37;;;;;;;11.03;8.87;;;;;;;3.46;70.21;95436.41;5015691;28;20199;-84
2021/03/19 05:14:03;;;;;;;12.77;9.33;;;;;;;3.45;70.70;95428.94;5034537;28;20230;-84
2021/03/19 05:16:29;;;;;;;10.93;9.13;;;;;;;3.46;70.48;95440.75;5034858;28;20229;-85
2021/03/19 05:18:55;;;;;;;11.50;9.43;;;;;;;3.43;70.31;95434.16;5015798;28;20235;-85
2021/03/19 05:21:22;;;;;;;11.20;8.93;;;;;;;3.36;69.80;95439.94;5015722;28;20250;-83
2021/03/19 05:23:48;;;;;;;11.10;8.90;;;;;;;3.38;70.34;95445.69;5033007;28;20265;-85
2021/03/19 05:26:14;;;;;;;11.33;9.60;;;;;;;3.38;70.86;95441.41;5018451;28;20293;-84
2021/03/19 05:28:41;;;;;;;11.47;9.10;;;;;;;3.38;71.01;95446.50;5014197;28;20617;-85
2021/03/19 05:31:07;;;;;;;12.00;8.83;;;;;;;3.39;70.67;95447.28;5027656;28;20265;-84
2021/03/19 05:33:43;;;;;;;9.93;8.53;;;;;;;3.37;70.29;95449.97;5017905;28;20231;-85
2021/03/19 05:36:09;;;;;;;10.10;8.53;;;;;;;3.38;70.20;95451.59;5030374;28;20205;-85
2021/03/19 05:38:35;;;;;;;11.37;8.93;;;;;;;3.37;69.46;95452.53;5018782;28;20589;-84
2021/03/19 05:41:05;;;;;;;10.47;8.40;;;;;;;3.38;69.71;95451.59;5030157;28;20230;-81
2021/03/19 05:43:34;;;;;;;10.93;9.10;;;;;;;3.39;70.06;95462.56;5032542;28;20798;-82
2021/03/19 05:46:05;;;;;;;14.40;9.03;;;;;;;3.36;70.07;95453.47;5031183;28;20237;-85
2021/03/19 05:48:39;;;;;;;27.70;21.53;;;;;;;3.32;70.37;95454.66;5031403;28;20218;-83
2021/03/19 05:51:07;;;;;;;19.07;13.33;;;;;;;3.34;70.39;95457.06;5031130;28;20214;-83
2021/03/19 05:53:43;;;;;;;14.37;10.70;;;;;;;3.32;70.51;95464.03;5024286;28;20232;-83
2021/03/19 05:56:14;;;;;;;12.37;8.90;;;;;;;3.34;70.44;95462.97;5030954;28;20257;-84
2021/03/19 05:58:41;;;;;;;10.80;9.13;;;;;;;3.33;69.76;95468.19;5032126;28;20288;-82
2021/03/19 06:01:07;;;;;;;9.67;8.07;;;;;;;3.34;70.35;95464.69;5031646;28;20576;-83
2021/03/19 06:03:33;;;;;;;11.97;8.70;;;;;;;3.39;70.00;95470.19;5032326;28;20218;-84
2021/03/19 06:06:02;;;;;;;10.97;9.03;;;;;;;3.37;70.09;95464.44;5033498;28;20341;-83
2021/03/19 06:08:32;;;;;;;11.03;8.77;;;;;;;3.37;70.64;95472.06;5030333;28;20243;-83
2021/03/19 06:11:06;;;;;;;11.13;8.83;;;;;;;3.38;70.09;95471.13;5016216;28;20194;-84
2021/03/19 06:13:52;;;;;;;10.73;8.77;;;;;;;3.38;70.48;95476.22;5016569;28;20580;-80
2021/03/19 06:16:32;;;;;;;11.90;8.60;;;;;;;3.33;69.46;95470.72;5028269;28;20217;-82
2021/03/19 06:19:00;;;;;;;11.97;9.00;;;;;;;3.34;69.52;95473.13;5029372;28;20237;-84
2021/03/19 06:21:29;;;;;;;12.83;9.43;;;;;;;3.35;69.19;95473.94;5032054;28;20317;-84
2021/03/19 06:24:22;;;;;;;12.37;8.40;;;;;;;3.33;68.76;95481.72;5019671;28;20229;-84
2021/03/19 06:26:49;;;;;;;10.17;8.23;;;;;;;3.36;69.50;95475.56;5014338;28;20245;-82
2021/03/19 06:29:26;;;;;;;9.93;8.57;;;;;;;3.37;69.23;95472.06;5030440;28;20226;-81
2021/03/19 06:32:12;;;;;;;34.60;25.23;;;;;;;3.40;69.07;95476.91;5032039;28;20201;-82
2021/03/19 06:34:52;;;;;;;13.37;10.40;;;;;;;3.36;68.63;95475.56;5031851;28;20221;-84
2021/03/19 06:37:28;;;;;;;10.37;8.90;;;;;;;3.37;68.44;95477.97;5032982;28;20245;-84
2021/03/19 06:39:57;;;;;;;9.83;8.03;;;;;;;3.36;69.16;95475.56;5030429;28;20226;-85
2021/03/19 06:42:33;;;;;;;10.30;8.60;;;;;;;3.32;69.05;95471.66;5031998;28;20296;-81
2021/03/19 06:45:17;;;;;;;9.83;8.47;;;;;;;3.27;69.27;95477.16;5030461;28;20262;-82
2021/03/19 06:47:47;;;;;;;11.73;8.63;;;;;;;3.27;69.61;95477.16;5027929;28;20222;-81
2021/03/19 06:50:30;;;;;;;10.10;8.93;;;;;;;3.26;69.43;95475.56;5030072;28;20669;-81
2021/03/19 06:53:18;;;;;;;11.93;8.47;;;;;;;3.28;69.87;95478.75;5031063;28;20706;-82
2021/03/19 06:55:47;;;;;;;12.20;9.00;;;;;;;3.33;69.77;95474.06;5032123;28;20265;-83
2021/03/19 06:58:13;;;;;;;23.33;18.40;;;;;;;3.41;69.95;95481.84;5030476;28;20233;-82
2021/03/19 07:00:44;;;;;;;17.27;13.20;;;;;;;3.53;70.38;95479.94;5030838;28;20289;-84
2021/03/19 07:03:21;;;;;;;12.83;9.50;;;;;;;3.57;69.43;95472.84;5031516;28;20324;-85
2021/03/19 07:05:58;;;;;;;10.87;8.77;;;;;;;3.48;69.05;95477.81;5032342;28;20225;-83
2021/03/19 07:08:33;;;;;;;10.23;8.20;;;;;;;3.53;68.87;95486.78;5031588;28;20226;-84
2021/03/19 07:11:07;;;;;;;10.53;8.40;;;;;;;3.61;68.81;95489.47;5030701;28;20210;-79
2021/03/19 07:13:46;;;;;;;10.27;8.27;;;;;;;3.64;68.80;95489.19;5011897;28;20227;-85
2021/03/19 07:16:16;;;;;;;10.70;8.60;;;;;;;3.67;68.61;95482.06;5011074;28;20230;-80
2021/03/19 07:19:14;;;;;;;10.13;8.67;;;;;;;3.75;68.21;95484.75;5010427;28;20257;-84
2021/03/19 07:22:05;;;;;;;9.43;7.83;;;;;;;3.92;68.42;95487.53;5010847;28;20278;-83
2021/03/19 07:24:49;;;;;;;10.13;7.97;;;;;;;4.00;67.60;95493.53;5012008;28;20609;-85
2021/03/19 07:27:28;;;;;;;8.93;7.60;;;;;;;4.04;68.27;95499.16;5011923;28;20261;-85
2021/03/19 07:30:07;;;;;;;10.00;8.30;;;;;;;4.06;67.01;95495.53;5010146;28;20249;-85
2021/03/19 07:33:12;;;;;;;10.07;8.23;;;;;;;4.07;66.46;95498.88;5014732;28;20300;-85
2021/03/19 07:35:51;;;;;;;10.37;8.63;;;;;;;4.10;66.78;95501.13;5030161;28;20222;-86
2021/03/19 07:38:45;;;;;;;10.70;8.20;;;;;;;4.11;66.04;95500.19;5020525;28;20225;-84
2021/03/19 07:41:22;;;;;;;10.47;8.57;;;;;;;4.11;66.86;95507.84;5028812;28;20206;-84
2021/03/19 07:44:05;;;;;;;10.60;9.23;;;;;;;4.11;65.82;95505.28;5028148;28;20295;-86
2021/03/19 07:46:39;;;;;;;10.77;8.03;;;;;;;4.25;73.21;95506.59;5029356;28;20233;-85
2021/03/19 07:49:28;;;;;;;19.23;12.80;;;;;;;4.79;82.75;95498.19;5029281;28;20222;-83
2021/03/19 07:52:06;;;;;;;8.90;8.00;;;;;;;5.25;78.83;95502.28;5026496;28;20226;-84
2021/03/19 07:54:41;;;;;;;8.17;6.93;;;;;;;5.63;77.07;95511.38;5031285;28;20240;-84
2021/03/19 07:57:16;;;;;;;9.33;7.23;;;;;;;5.94;72.24;95504.16;5015883;28;20729;-84
2021/03/19 07:59:49;;;;;;;7.80;6.97;;;;;;;6.14;73.15;95509.88;5011131;28;20226;-85
2021/03/19 08:02:43;;;;;;;10.13;8.30;;;;;;;6.27;67.72;95505.16;5015392;28;20244;-85
2021/03/19 08:05:20;;;;;;;11.63;9.10;;;;;;;6.10;62.52;95508.56;5022987;28;20206;-85
2021/03/19 08:07:53;;;;;;;11.80;9.83;;;;;;;5.87;63.15;95503.91;5030687;28;20195;-86
2021/03/19 08:10:24;;;;;;;10.50;9.17;;;;;;;5.61;63.06;95505.63;5027231;28;20221;-84
2021/03/19 08:13:02;;;;;;;11.20;8.90;;;;;;;5.47;63.37;95512.06;5018843;28;20660;-85
2021/03/19 08:15:34;;;;;;;12.57;10.37;;;;;;;5.32;63.32;95510.97;5025857;28;20244;-85
2021/03/19 08:18:06;;;;;;;12.70;10.03;;;;;;;5.17;63.97;95512.44;5020823;28;20218;-84
2021/03/19 08:20:43;;;;;;;11.97;10.10;;;;;;;5.08;64.50;95511.53;5030603;28;20230;-82
2021/03/19 08:23:21;;;;;;;12.73;10.37;;;;;;;5.09;65.20;95512.34;5028932;28;20238;-83
2021/03/19 08:25:49;;;;;;;11.97;10.50;;;;;;;5.11;65.14;95516.38;5028210;28;20198;-83
2021/03/19 08:28:26;;;;;;;12.33;9.57;;;;;;;5.05;64.57;95518.69;5021641;28;20218;-83
2021/03/19 08:31:00;;;;;;;11.10;9.77;;;;;;;4.97;65.11;95521.97;5024370;28;20218;-84
2021/03/19 08:33:44;;;;;;;11.43;9.83;;;;;;;4.98;64.96;95523.56;5014844;28;20292;-84
2021/03/19 08:36:20;;;;;;;11.63;9.73;;;;;;;4.98;64.68;95527.88;5031512;28;20233;-83
2021/03/19 08:38:50;;;;;;;12.33;9.50;;;;;;;5.00;64.46;95526.78;5020447;28;20225;-83
2021/03/19 08:41:19;;;;;;;11.97;9.70;;;;;;;4.96;64.61;95533.13;5014083;28;22972;-84
2021/03/19 08:43:48;;;;;;;11.87;9.70;;;;;;;4.92;64.95;95526.69;5029724;28;20218;-83
2021/03/19 08:46:20;;;;;;;12.30;9.83;;;;;;;4.95;65.80;95536.63;5028269;28;20221;-83
2021/03/19 08:48:51;;;;;;;16.23;10.70;;;;;;;5.01;65.78;95541.13;5032033;28;20276;-84
2021/03/19 08:51:23;;;;;;;12.43;10.37;;;;;;;5.05;65.50;95532.25;5033569;28;20249;-83
2021/03/19 08:54:24;;;;;;;14.83;10.93;;;;;;;5.04;66.03;95537.47;5031360;28;20793;-84
2021/03/19 08:56:52;;;;;;;14.27;10.90;;;;;;;5.11;66.48;95541.88;4972462;28;20247;-85
2021/03/19 08:59:47;;;;;;;12.43;11.10;;;;;;;5.08;65.50;95539.63;5021091;28;20643;-84
2021/03/19 09:02:41;;;;;;;17.70;14.10;;;;;;;5.05;65.64;95545.00;5033401;28;20221;-84
2021/03/19 09:05:29;;;;;;;17.00;14.57;;;;;;;5.05;65.73;95539.91;5033565;28;20202;-85
2021/03/19 09:08:21;;;;;;;15.30;11.40;;;;;;;5.10;66.00;95547.13;5030816;28;20202;-83
2021/03/19 09:11:11;;;;;;;13.67;11.27;;;;;;;5.07;66.73;95548.22;5018817;28;20227;-82
2021/03/19 09:13:37;;;;;;;13.90;11.13;;;;;;;4.98;67.47;95546.53;5014468;28;20251;-84
2021/03/19 09:16:37;;;;;;;14.10;11.00;;;;;;;4.95;67.96;95553.66;5014389;28;20234;-86
2021/03/19 09:19:03;;;;;;;14.17;11.17;;;;;;;4.89;68.75;95554.22;5007269;28;20249;-85
2021/03/19 09:21:32;;;;;;;13.97;11.30;;;;;;;4.88;68.23;95558.53;5028273;28;20313;-85
2021/03/19 09:24:07;;;;;;;15.03;11.90;;;;;;;4.90;69.14;95555.84;5033770;28;20256;-82
2021/03/19 09:26:45;;;;;;;16.40;12.10;;;;;;;5.00;69.24;95562.50;5033668;28;20247;-83
2021/03/19 09:29:33;;;;;;;14.70;11.47;;;;;;;5.15;68.98;95555.97;5033186;28;20194;-82
2021/03/19 09:32:20;;;;;;;13.50;11.13;;;;;;;5.25;69.13;95558.44;5032813;28;20728;-82
2021/03/19 09:35:15;;;;;;;12.90;11.33;;;;;;;5.24;69.75;95558.59;5031381;28;20198;-82
2021/03/19 09:37:51;;;;;;;15.57;12.43;;;;;;;5.27;68.95;95551.44;5024384;28;20305;-82
2021/03/19 09:40:44;;;;;;;16.43;12.40;;;;;;;5.18;70.84;95549.78;5033241;28;20233;-83
2021/03/19 09:43:36;;;;;;;15.03;11.80;;;;;;;5.04;69.27;95552.78;5033751;28;20230;-85
2021/03/19 09:46:13;;;;;;;13.70;11.70;;;;;;;4.98;69.60;95561.03;5033646;28;20222;-85
2021/03/19 09:48:39;;;;;;;12.83;11.43;;;;;;;4.93;68.87;95558.91;5031401;28;20226;-82
2021/03/19 09:51:28;;;;;;;16.17;12.97;;;;;;;4.95;69.36;95556.22;5028806;28;20237;-82
2021/03/19 09:53:55;;;;;;;14.23;12.23;;;;;;;4.99;69.29;95555.78;5023390;28;20226;-84
2021/03/19 09:56:26;;;;;;;14.03;11.43;;;;;;;5.04;68.99;95565.56;5033115;28;20225;-84
2021/03/19 09:58:55;;;;;;;14.03;11.10;;;;;;;5.17;69.38;95556.63;5023383;28;20305;-81
2021/03/19 10:01:33;;;;;;;12.17;10.83;;;;;;;5.28;69.28;95552.25;5011940;28;20222;-83
2021/03/19 10:04:02;;;;;;;12.30;11.00;;;;;;;5.30;69.22;95558.00;5021428;28;20234;-81
2021/03/19 10:06:31;;;;;;;13.37;11.00;;;;;;;5.22;68.26;95556.97;5013198;28;20223;-84
2021/03/19 10:09:07;;;;;;;12.03;10.73;;;;;;;5.10;68.13;95547.13;5018271;28;20218;-84
2021/03/19 10:11:33;;;;;;;12.20;10.80;;;;;;;5.13;68.46;95565.50;5032402;28;20221;-83
2021/03/19 10:14:22;;;;;;;12.53;11.23;;;;;;;5.14;69.33;95559.47;5031718;28;20233;-82
2021/03/19 10:16:48;;;;;;;17.53;10.50;;;;;;;5.20;68.77;95558.06;5032864;28;20202;-84
2021/03/19 10:19:15;;;;;;;12.53;10.60;;;;;;;5.06;68.71;95564.47;5022089;28;20240;-84
2021/03/19 10:21:45;;;;;;;12.57;11.07;;;;;;;5.12;68.77;95558.81;5022257;28;20279;-85
2021/03/19 10:24:13;;;;;;;12.47;10.67;;;;;;;5.22;69.67;95558.72;5018055;28;20236;-83
2021/03/19 10:26:47;;;;;;;12.17;10.73;;;;;;;5.29;67.88;95557.22;5027005;28;20252;-84
2021/03/19 10:29:16;;;;;;;32.43;24.60;;;;;;;5.35;67.84;95554.09;5029630;28;20261;-85
2021/03/19 10:31:49;;;;;;;15.53;13.93;;;;;;;5.47;67.55;95555.47;5030705;28;20201;-83
2021/03/19 10:34:24;;;;;;;13.40;12.00;;;;;;;5.48;67.42;95554.53;5031814;28;20226;-84
2021/03/19 10:36:57;;;;;;;11.87;10.43;;;;;;;5.49;66.52;95555.31;5031677;28;20229;-84
2021/03/19 10:39:29;;;;;;;12.97;10.87;;;;;;;5.53;66.09;95556.66;5030928;28;20276;-85
2021/03/19 10:42:10;;;;;;;13.07;10.97;;;;;;;5.54;66.44;95558.25;5026897;28;20229;-85
2021/03/19 10:44:52;;;;;;;12.67;10.93;;;;;;;5.32;65.61;95554.38;5032804;28;20229;-84
2021/03/19 10:47:25;;;;;;;11.83;10.60;;;;;;;5.35;66.74;95558.41;5030375;28;20270;-85
2021/03/19 10:49:55;;;;;;;11.17;10.07;;;;;;;5.44;65.66;95554.94;5027911;28;20206;-86
2021/03/19 10:52:29;;;;;;;11.80;10.53;;;;;;;5.46;65.03;95556.41;5030070;28;20218;-86
2021/03/19 10:55:00;;;;;;;13.00;10.87;;;;;;;5.60;65.49;95559.41;5030828;28;20221;-86
2021/03/19 10:57:30;;;;;;;12.50;11.20;;;;;;;5.69;65.85;95561.88;5030666;28;20210;-84
2021/03/19 10:59:56;;;;;;;13.27;10.97;;;;;;;5.93;64.25;95563.88;5027714;28;20237;-85
2021/03/19 11:02:26;;;;;;;13.13;11.73;;;;;;;6.15;64.38;95565.97;5021251;28;20245;-82
2021/03/19 11:05:07;;;;;;;10.20;9.20;;;;;;;6.13;61.81;95569.59;5032365;28;20583;-83
2021/03/19 11:07:37;;;;;;;11.57;10.23;;;;;;;6.05;62.23;95565.22;5013892;28;20250;-83
2021/03/19 11:10:14;;;;;;;11.77;10.17;;;;;;;5.81;61.69;95565.00;5015266;28;20222;-85
2021/03/19 11:12:44;;;;;;;16.90;14.07;;;;;;;5.86;61.78;95561.06;5017387;28;20859;-85
2021/03/19 11:15:13;;;;;;;14.80;12.20;;;;;;;5.88;60.92;95558.38;5031214;28;20233;-85
2021/03/19 11:17:40;;;;;;;11.50;10.30;;;;;;;5.87;63.19;95556.75;5016087;28;20330;-86
2021/03/19 11:20:10;;;;;;;10.93;9.83;;;;;;;5.92;63.21;95553.81;5022691;28;20204;-85
2021/03/19 11:22:39;;;;;;;11.43;10.27;;;;;;;5.95;64.15;95556.88;5020279;28;20272;-85
2021/03/19 11:25:23;;;;;;;11.17;9.97;;;;;;;5.96;64.62;95555.13;5030937;28;20226;-86
2021/03/19 11:27:50;;;;;;;12.43;11.13;;;;;;;5.83;64.81;95551.13;5025429;28;20866;-85
2021/03/19 11:30:30;;;;;;;12.07;10.77;;;;;;;5.79;63.70;95554.94;5030486;28;20229;-85
2021/03/19 11:33:03;;;;;;;13.27;10.87;;;;;;;5.67;63.50;95557.88;5030554;28;20226;-85
2021/03/19 11:35:30;;;;;;;11.83;10.63;;;;;;;5.87;62.80;95549.09;5030337;28;20222;-85
2021/03/19 11:37:56;;;;;;;12.63;10.67;;;;;;;6.22;62.64;95553.34;5031259;28;20226;-85
2021/03/19 11:40:39;;;;;;;11.53;9.60;;;;;;;6.31;59.83;95549.91;5027571;28;20245;-85
2021/03/19 11:43:07;;;;;;;11.60;10.37;;;;;;;6.51;58.70;95545.38;5019038;28;20645;-85
2021/03/19 11:45:37;;;;;;;11.00;9.57;;;;;;;6.80;58.70;95540.72;5030060;28;20249;-85
2021/03/19 11:48:18;;;;;;;10.57;9.40;;;;;;;6.88;57.88;95534.84;5018415;28;20247;-85
2021/03/19 11:50:46;;;;;;;11.40;10.27;;;;;;;6.87;58.15;95528.91;5027915;28;20304;-85
2021/03/19 11:53:17;;;;;;;10.90;9.80;;;;;;;6.68;57.91;95536.03;5028628;28;20640;-85
2021/03/19 11:55:45;;;;;;;9.90;8.90;;;;;;;6.56;57.80;95543.16;5030102;28;20208;-85
2021/03/19 11:58:16;;;;;;;11.47;9.60;;;;;;;6.45;57.99;95534.00;5030703;28;20225;-86
2021/03/19 12:00:44;;;;;;;12.67;9.90;;;;;;;6.30;59.14;95537.28;5029228;28;20226;-85